Kezdőlap
METAR-TAF:

METAR-TAF

Repülőterek :

Atlantic, Iowa, Amerikai Egyesült Államok

földrajzi szélesség: 41-24N, földrajzi hosszúság: 095-03W, magasság: 360 m

Jelenlegi meteorológiai megfigyelések

A jelentés 12 perccel ezelõtt készült, 06:35 UTC
Déli szél 7 kt
Hőmérséklet 13°C
Páratartalom 94%
Légköri nyomás 995 hPa
Látótávolság: 16.1 km
Kevés felhő 3800 lábon
Kevés felhő 4300 lábon
Szórványos felhőzet 5500 lábon

METAR: KAIO 220635Z AUTO 17007KT 10SM FEW038 FEW043 SCT055 13/12 A2938 RMK AO2

Idő: 01:47 (06:47 UTC)


TAF: hiányzik

Meteorológiai megfigyelések és előrejelzések több, mint 4000 repülőtéren (METAR és TAF jelentéseket).

A térképen piros és sárga pontok jelzik az elérhető meteorológiai állomásokat.

Mozgassa az egeret a pont fölött, hogy megjelenjen az állomás neve.

Azután kattintson az időjárási megfigyelések és előrejelzések megtekintéséhez.

A térkép megváltoztatása: kattintson a fekete keresztel jelölt zöld gombra ráközelítéshez, a vonallal jelölt zöld gombra távolításhoz, vagy a zöld nyilakra a szomszédos térképek eléréséhez.


METAR-TAF: